Warning: Javascript must be enabled to use all the features on this page!


Page Loading - Please Wait...

Click to hideNews Bulletins

Peak Streamflow for the Nation

USGS 10150500 SPANISH FORK AT CASTILLA, UT

Utah County, Utah
Hydrologic Unit Code 16020202
Latitude  40°02'59", Longitude 111°32'50" NAD27
Drainage area 652  square miles
Gage datum 4,870.00 feet above NGVD29
Output formats
Table
Graph
Tab-separated file
peakfq (watstore) format
Reselect output format
Water
Year
Date Gage
Height
(feet)
Stream-
flow
(cfs)
1890 1890-05   1,0407,Bd
1903 1903-06-03   388
1904 1904-05-16   415
1905 1905-05-23   410
1906 1906-05-12 4.503 907
1907 1907-05-21 6.003 1,970
1908 1908-07-29   318
1909 1909-05-11   1,5301
1910 1910-04-27   7771
1911 1911-01-31   7851
1912 1912-05-30   5811
1913 1913-05-12   5451
1914 1914-05-10   1,2901
1915 1915-04-30   3301
1916 1916-04-29   1,0001
1917 1917-05-16   1,1101
1919 1919-07-02   5281,6
1920 1920-05-22   1,5201,6
1921 1921-05-16   9981,6
1922 1922-05-07   1,4401,6
1923 1923-05-20   1,1401,6
1924 1924-05-09   6031,6
1925 1925-07-01   5861,6
1933 1933-06-01   6171,6
1934 1934-05-09   2601,6
1935 1935-05-28   5511,6
1936 1936-05-05   8901,6
1937 1937-05-10 6.783 1,0106
1938 1938-05-17 5.873 6946
1939 1939-05-31 6.803 9056
1940 1940-06-20 3.876 5416
1941 1941-08-10 4.88 7766
1942 1942-05-26 4.72 6276
1943 1943-08-11 4.79 5686
1944 1944-05-10 5.42 9236
1945 1945-05-12 4.94 6966
1946 1946-04-21 4.96 6456
1947 1947-07-08 5.20 6646
1948 1948-07-11 5.25 6646
1949 1949-07-03 5.79 8416
1950 1950-06-29 5.44 6796
1951 1951-07-05 5.49 6226
1952 1952-05-03 9.83 3,6106
1953 1953-06-04 5.55 6186
1954 1954-07-13 5.77 6226
1955 1955-08-07 5.98 7326
1956 1956-08-13 6.04 6886
1957 1957-06-04 6.16 7586
1958 1958-05-21 7.03 8806
1959 1959-07-14 7.30 9586
1960 1960-09-05 7.04 6566
1961 1961-08-03 7.00 6226
1962 1962-02-12 7.47 1,0306
1963 1963-08-07 7.47 7126
1964 1964-05-21 7.61 7446
1965 1965-08-10 7.83 1,0006
1966 1966-05-28 7.48 6616
1967 1967-07-07 7.94 7156
1968 1968-05-31 8.04 7496
1969 1969-04-24 8.58 1,3106
1970 1970-08-26 9.00 1,5906
1971 1971-05-16 8.08 7156
1972 1972-05-21 8.27 6076
1973 1973-05-19 9.39 1,4406
1974 1974-05-10 8.65 9916
1975 1975-05-20 9.70 2,5006
1976 1976-05-15 7.86 7016
1977 1977-07-02 7.56 5926
1978 1978-05-15 8.62 9466
1979 1979-05-23 8.11 7586
1980 1980-05-06 9.59 1,2206
1981 1981-08-11 7.79 6146
1982 1982-05-04 9.96 1,5406
1983 1983-05-30 10.67 2,9806
1984 1984-05-15 11.53 5,0006
1985 1985-05-10 6.32 1,2506
1986 1986-05-04 6.08 1,2406
1987 1987-08-06 5.24 8476
1988 1988-07-27 4.64 6046
1989 1989-06-15   5411,6
1990 1990-06-11 4.74 6246
1991 1991-06-28   5761,6
1992 1992-05-09 4.50 5411,6
1993 1993-05-22 6.34 1,2506
1994 1994-06-24 5.10 6446
1995 1995-05-23 6.58 1,3306
1996 1996-05-15 5.39 8616
1997 1997-05-15 6.13 1,1006
1998 1998-05-04 6.28 1,1806
1999 1999-05-26 5.85 9506
2000 2000-06-08 5.16 5946
2001 2001-06-12 5.89 1,0706
2002 2002-01-22 5.06 5276
2003 2003-06-19 5.19 5116
2004 2004-04-13 6.12 9566
2005 2005-05-22 7.00 1,5206
2006 2006-04-25 6.80 1,3806
2007 2007-06-06 5.52 6076
2008 2008-08-04 5.94 8236
2009 2009-05-08 6.31 9346
2010 2010-08-02 5.75 6716
2011 2011-05-16 7.76 1,8206
2012 2012-06-25 5.04 5666
2013 2013-04-17 5.55 7646
2014 2014-07-29 5.07 5666
2015 2015-07-01 5.08 5716
2016 2016-06-21 5.05 5566
2017 2017-05-13 5.49 7176
2018 2018-08-23 5.57 7496
2019 2019-07-26 8.72 2,3706
2020 2020-06-26 4.87 5186
2021 2021-08-02 7.38 1,3406
?
  Peak Gage-Height Qualification Codes.
?
  Peak Streamflow Qualification Codes.